Barrowby, United Kingdom
Current Conditions -  °F | °C
As of 4:50 AM on Monday 22 Dec 2014 (Local Time) from EGYD Reporting Station
Broken Clouds Broken Clouds  
Wind Chill: 55°   Ceiling: 1900
Heat Index: 55°   Visibility: 6mi
Dew Point: 48°   Wind: 33mph
Humidity: 77%   Direction: 250°WSW
Pressure: 29.85"   Gusts: NA
Location:  52.92°N, 0.69°W
Report Text: EGYD 220450Z AUTO 25029KT 9999 // BKN019/// BKN026/// 13/09 Q1011
Loading
Personal Weather Stations






























Interactive Weather Map New forecast layout! Learn more

10-Day Weather Forecast

Advertisements
Track Severe Weather on mobile